Time;durP1;ratioP1;P1;durP2;ratioP2;P2;SDS_P1;SDS_P2;PMS_P1;PMS_P2;Temp;Humidity;BMP_temperature;BMP_pressure;BME280_temperature;BME280_humidity;BME280_pressure;Samples;Min_cycle;Max_cycle;Signal;HPM_P1;HPM_P2
2021/08/27 00:02:31;;;;;;;5.37;1.60;;;13.90;99.90;;;;;;5038525;28;20472;-84
2021/08/27 00:05:10;;;;;;;6.63;1.47;;;13.90;99.90;;;;;;5059324;28;20211;-83
2021/08/27 00:07:51;;;;;;;7.17;1.80;;;13.90;99.90;;;;;;5062447;28;22764;-84
2021/08/27 00:10:38;;;;;;;4.17;1.47;;;13.80;99.90;;;;;;5062035;28;20279;-83
2021/08/27 00:13:07;;;;;;;4.33;1.80;;;13.70;99.90;;;;;;5061525;28;20188;-81
2021/08/27 00:15:35;;;;;;;6.77;1.70;;;13.60;99.90;;;;;;5065131;28;20245;-81
2021/08/27 00:18:02;;;;;;;6.13;1.33;;;13.60;99.90;;;;;;5057691;28;20290;-84
2021/08/27 00:20:38;;;;;;;7.13;1.67;;;13.50;99.90;;;;;;5062851;28;20250;-84
2021/08/27 00:23:13;;;;;;;5.90;2.07;;;13.50;99.90;;;;;;5062704;28;20204;-83
2021/08/27 00:26:03;;;;;;;6.03;2.20;;;13.50;99.90;;;;;;5063810;28;20253;-81
2021/08/27 00:28:50;;;;;;;3.20;1.40;;;13.50;99.90;;;;;;5064865;28;20190;-82
2021/08/27 00:32:01;;;;;;;3.43;1.40;;;13.40;99.90;;;;;;5062229;28;20752;-83
2021/08/27 00:34:46;;;;;;;3.40;1.30;;;13.30;99.90;;;;;;5063603;28;20192;-82
2021/08/27 00:40:39;;;;;;;3.63;1.30;;;13.20;99.90;;;;;;5061917;28;20236;-80
2021/08/27 00:43:34;;;;;;;7.70;1.87;;;13.20;99.90;;;;;;5068359;28;20343;-82
2021/08/27 00:46:13;;;;;;;7.27;1.53;;;13.10;99.90;;;;;;5062288;28;20219;-82
2021/08/27 00:49:03;;;;;;;7.13;1.77;;;13.10;99.90;;;;;;5066879;28;20223;-86
2021/08/27 00:51:45;;;;;;;4.67;1.33;;;13.10;99.90;;;;;;5066603;28;20215;-85
2021/08/27 00:57:04;;;;;;;7.70;1.70;;;12.90;99.90;;;;;;5064659;28;20197;-84
2021/08/27 00:59:42;;;;;;;6.20;1.60;;;12.90;99.90;;;;;;5068659;28;20232;-83
2021/08/27 01:02:11;;;;;;;7.07;1.53;;;12.90;99.90;;;;;;5068012;28;20195;-82
2021/08/27 01:04:50;;;;;;;3.93;1.53;;;12.80;99.90;;;;;;5067300;28;20238;-83
2021/08/27 01:08:01;;;;;;;4.23;1.40;;;12.80;99.90;;;;;;5063423;28;20220;-83
2021/08/27 01:10:32;;;;;;;5.33;1.43;;;12.70;99.90;;;;;;5054947;28;20203;-82
2021/08/27 01:13:13;;;;;;;4.30;1.67;;;12.60;99.90;;;;;;5063810;28;20199;-83
2021/08/27 01:15:55;;;;;;;6.13;1.30;;;12.60;99.90;;;;;;5059972;28;20204;-84
2021/08/27 01:22:05;;;;;;;5.13;1.57;;;12.50;99.90;;;;;;5064678;28;20242;-83
2021/08/27 01:24:33;;;;;;;6.17;1.60;;;12.50;99.90;;;;;;5029629;28;20658;-86
2021/08/27 01:27:17;;;;;;;4.67;1.57;;;12.50;99.90;;;;;;5058999;28;20196;-84
2021/08/27 01:29:58;;;;;;;4.13;1.40;;;12.50;99.90;;;;;;5062615;28;20193;-84
2021/08/27 01:32:52;;;;;;;7.83;1.47;;;12.40;99.90;;;;;;5069590;28;20204;-84
2021/08/27 01:35:27;;;;;;;2.63;1.30;;;12.50;99.90;;;;;;5073043;28;20214;-85
2021/08/27 01:40:56;;;;;;;4.13;1.60;;;12.40;99.90;;;;;;5064785;28;20567;-83
2021/08/27 01:43:37;;;;;;;4.93;1.37;;;12.30;99.90;;;;;;5062449;28;20258;-82
2021/08/27 01:46:13;;;;;;;3.00;1.43;;;12.30;99.90;;;;;;5061589;28;20204;-83
2021/08/27 01:49:42;;;;;;;2.83;1.20;;;12.20;99.90;;;;;;5061070;28;20287;-82
2021/08/27 01:52:34;;;;;;;4.17;1.63;;;12.30;99.90;;;;;;5062767;28;20192;-83
2021/08/27 01:55:21;;;;;;;3.77;1.70;;;12.20;99.90;;;;;;5065373;28;20203;-83
2021/08/27 01:57:50;;;;;;;5.43;2.13;;;12.20;99.90;;;;;;5066708;28;20198;-83
2021/08/27 02:03:45;;;;;;;5.23;1.80;;;12.10;99.90;;;;;;5060149;28;20196;-82
2021/08/27 02:06:15;;;;;;;4.73;1.73;;;12.10;99.90;;;;;;5060791;28;20312;-83
2021/08/27 02:08:46;;;;;;;3.67;1.63;;;12.10;99.90;;;;;;5062251;28;20201;-81
2021/08/27 02:11:15;;;;;;;5.90;1.90;;;12.10;99.90;;;;;;5058398;28;20262;-82
2021/08/27 02:13:54;;;;;;;5.93;1.87;;;12.30;99.90;;;;;;5058928;28;20549;-82
2021/08/27 02:16:24;;;;;;;4.90;2.00;;;12.30;99.90;;;;;;5060027;28;20222;-83
2021/08/27 02:18:52;;;;;;;4.93;1.53;;;12.30;99.90;;;;;;5055322;28;20204;-83
2021/08/27 02:21:44;;;;;;;5.53;1.83;;;12.40;99.90;;;;;;5058238;28;20252;-83
2021/08/27 02:30:48;;;;;;;9.70;2.17;;;12.50;99.90;;;;;;5055328;28;20196;-83
2021/08/27 02:33:52;;;;;;;6.80;1.90;;;12.50;99.90;;;;;;5062691;28;20219;-85
2021/08/27 02:36:24;;;;;;;5.00;2.10;;;12.40;99.90;;;;;;5065038;28;20283;-84
2021/08/27 02:38:55;;;;;;;5.20;2.10;;;12.40;99.90;;;;;;5059407;28;20194;-81
2021/08/27 02:41:24;;;;;;;7.83;2.10;;;12.40;99.90;;;;;;5059600;28;20234;-84
2021/08/27 02:43:58;;;;;;;6.27;1.50;;;12.40;99.90;;;;;;5058769;28;20192;-84
2021/08/27 02:46:34;;;;;;;5.10;2.10;;;12.40;99.90;;;;;;5059177;28;20200;-82
2021/08/27 02:49:10;;;;;;;8.23;2.30;;;12.40;99.90;;;;;;5060157;28;20200;-83
2021/08/27 02:51:59;;;;;;;8.37;2.00;;;12.30;99.90;;;;;;5061363;28;20226;-83
2021/08/27 02:54:48;;;;;;;9.57;2.37;;;12.30;99.90;;;;;;5060512;28;20199;-82
2021/08/27 02:57:23;;;;;;;4.23;2.03;;;12.30;99.90;;;;;;5062181;28;20200;-83
2021/08/27 02:59:54;;;;;;;4.10;1.80;;;12.30;99.90;;;;;;5058734;28;20215;-82
2021/08/27 03:02:24;;;;;;;5.97;1.70;;;12.10;99.90;;;;;;5058735;28;20943;-84
2021/08/27 03:05:02;;;;;;;9.97;2.30;;;12.00;99.90;;;;;;5056019;28;20515;-82
2021/08/27 03:07:34;;;;;;;7.20;2.00;;;12.00;99.90;;;;;;5058237;28;20197;-83
2021/08/27 03:10:05;;;;;;;4.03;2.07;;;11.90;99.90;;;;;;5059018;28;20286;-83
2021/08/27 03:12:50;;;;;;;5.37;1.90;;;11.90;99.90;;;;;;5059830;28;20216;-82
2021/08/27 03:15:31;;;;;;;2.87;2.27;;;11.80;99.90;;;;;;5058919;28;20261;-80
2021/08/27 03:18:09;;;;;;;5.73;1.80;;;11.80;99.90;;;;;;5062737;28;20201;-82
2021/08/27 03:20:47;;;;;;;5.67;2.50;;;11.80;99.90;;;;;;5058634;28;20721;-82
2021/08/27 03:23:18;;;;;;;5.13;2.33;;;11.80;99.90;;;;;;5062459;28;20547;-81
2021/08/27 03:25:50;;;;;;;5.43;2.03;;;11.80;99.90;;;;;;5062962;28;20200;-82
2021/08/27 03:28:23;;;;;;;6.23;2.03;;;11.90;99.90;;;;;;5063039;28;20196;-82
2021/08/27 03:31:03;;;;;;;7.03;2.63;;;11.90;99.90;;;;;;5060952;28;20289;-83
2021/08/27 03:33:36;;;;;;;9.20;2.97;;;11.80;99.90;;;;;;5062143;28;20218;-83
2021/08/27 03:36:10;;;;;;;5.70;2.53;;;11.80;99.90;;;;;;5067209;28;20199;-83
2021/08/27 03:38:40;;;;;;;6.50;1.97;;;11.80;99.90;;;;;;5065265;28;20196;-83
2021/08/27 03:41:09;;;;;;;3.07;2.03;;;11.70;99.90;;;;;;5063361;28;20232;-84
2021/08/27 03:43:49;;;;;;;10.57;5.00;;;11.80;99.90;;;;;;5063074;28;20209;-84
2021/08/27 03:46:17;;;;;;;5.23;2.90;;;11.70;99.90;;;;;;5065085;28;20187;-84
2021/08/27 03:48:51;;;;;;;6.60;3.60;;;11.60;99.90;;;;;;5064969;28;20254;-84
2021/08/27 03:51:23;;;;;;;8.77;4.23;;;11.60;99.90;;;;;;5063304;28;20214;-84
2021/08/27 03:53:57;;;;;;;6.67;3.60;;;11.70;99.90;;;;;;5061559;28;20200;-83
2021/08/27 03:56:29;;;;;;;7.53;4.00;;;11.70;99.90;;;;;;5063005;28;20210;-83
2021/08/27 03:59:00;;;;;;;8.47;4.20;;;11.70;99.90;;;;;;5066382;28;21991;-83
2021/08/27 04:01:30;;;;;;;5.37;3.33;;;11.70;99.90;;;;;;5066014;28;20632;-82
2021/08/27 04:03:58;;;;;;;8.43;4.23;;;11.70;99.90;;;;;;5062205;28;20211;-83
2021/08/27 04:06:34;;;;;;;7.17;3.10;;;11.70;99.90;;;;;;5064534;28;20203;-83
2021/08/27 04:09:03;;;;;;;8.60;3.30;;;11.60;99.90;;;;;;5064579;28;20279;-81
2021/08/27 04:11:37;;;;;;;8.40;3.20;;;11.50;99.90;;;;;;5062979;28;20200;-84
2021/08/27 04:14:08;;;;;;;5.63;2.80;;;11.60;99.90;;;;;;5061822;28;20230;-84
2021/08/27 04:16:42;;;;;;;8.13;3.50;;;11.50;99.90;;;;;;5065232;28;20192;-83
2021/08/27 04:19:12;;;;;;;8.00;3.27;;;11.50;99.90;;;;;;5061988;28;20200;-83
2021/08/27 04:21:43;;;;;;;7.43;3.27;;;11.50;99.90;;;;;;5064893;28;20250;-82
2021/08/27 04:24:16;;;;;;;5.17;3.30;;;11.50;99.90;;;;;;5070225;28;20287;-83
2021/08/27 04:26:44;;;;;;;10.70;3.23;;;11.40;99.90;;;;;;5061605;28;20188;-82
2021/08/27 04:29:14;;;;;;;4.73;3.03;;;11.40;99.90;;;;;;5067567;28;20234;-84
2021/08/27 04:31:46;;;;;;;6.53;2.80;;;11.30;99.90;;;;;;5059135;28;20587;-84
2021/08/27 04:34:20;;;;;;;3.87;2.00;;;11.30;99.90;;;;;;5072657;28;20886;-84
2021/08/27 04:36:48;;;;;;;5.80;2.93;;;11.30;99.90;;;;;;5071001;28;20550;-83
2021/08/27 04:39:19;;;;;;;7.60;2.70;;;11.30;99.90;;;;;;5071036;28;20668;-84
2021/08/27 04:41:46;;;;;;;6.93;2.93;;;11.30;99.90;;;;;;5073192;28;20601;-84
2021/08/27 04:44:20;;;;;;;6.10;2.73;;;11.40;99.90;;;;;;5069914;28;20247;-86
2021/08/27 04:46:50;;;;;;;5.20;2.67;;;11.30;99.90;;;;;;5075013;28;20649;-86
2021/08/27 04:49:23;;;;;;;5.90;3.10;;;11.30;99.90;;;;;;5071413;28;20663;-86
2021/08/27 04:51:51;;;;;;;4.67;2.40;;;11.30;99.90;;;;;;5074136;28;20189;-85
2021/08/27 04:54:19;;;;;;;5.47;2.37;;;11.30;99.90;;;;;;5077723;28;20208;-86
2021/08/27 04:56:48;;;;;;;7.93;3.50;;;11.20;99.90;;;;;;5073941;28;20199;-86
2021/08/27 04:59:20;;;;;;;6.63;3.37;;;11.20;99.90;;;;;;5073153;28;20233;-86
2021/08/27 05:01:49;;;;;;;7.00;3.67;;;11.20;99.90;;;;;;5068341;28;20735;-84
2021/08/27 05:04:17;;;;;;;4.97;3.00;;;11.20;99.90;;;;;;5066582;28;20209;-83
2021/08/27 05:06:44;;;;;;;9.23;2.67;;;11.20;99.90;;;;;;5064362;28;20192;-84
2021/08/27 05:09:12;;;;;;;5.95;3.10;;;11.20;99.90;;;;;;5067489;28;20448;-87
2021/08/27 05:11:39;;;;;;;5.57;2.57;;;11.20;99.90;;;;;;5067780;28;20321;-84
2021/08/27 05:14:07;;;;;;;10.53;3.07;;;11.20;99.90;;;;;;5065684;28;20193;-86
2021/08/27 05:16:37;;;;;;;9.13;4.40;;;11.30;99.90;;;;;;5068218;28;20196;-87
2021/08/27 05:19:04;;;;;;;6.53;3.27;;;11.30;99.90;;;;;;5070162;28;20390;-88
2021/08/27 05:21:32;;;;;;;7.70;3.10;;;11.30;99.90;;;;;;5068469;28;20220;-87
2021/08/27 05:24:01;;;;;;;10.50;3.00;;;11.30;99.90;;;;;;5071757;28;20211;-86
2021/08/27 05:26:32;;;;;;;5.77;3.03;;;11.40;99.90;;;;;;5067592;28;20198;-86
2021/08/27 05:28:59;;;;;;;7.70;3.10;;;11.40;99.90;;;;;;5070241;28;20239;-86
2021/08/27 05:31:28;;;;;;;10.80;3.70;;;11.50;99.90;;;;;;5070070;28;20196;-86
2021/08/27 05:33:59;;;;;;;4.60;2.63;;;11.50;99.90;;;;;;5058199;28;20200;-85
2021/08/27 05:36:29;;;;;;;5.03;2.70;;;11.60;99.90;;;;;;5062299;28;20212;-85
2021/08/27 05:38:56;;;;;;;7.20;3.20;;;11.60;99.90;;;;;;5064374;28;20211;-87
2021/08/27 05:41:27;;;;;;;8.93;4.77;;;11.70;99.90;;;;;;5068729;28;20262;-87
2021/08/27 05:43:54;;;;;;;6.97;2.90;;;11.80;99.90;;;;;;5072011;28;20208;-81
2021/08/27 05:46:22;;;;;;;8.57;2.90;;;11.90;99.90;;;;;;5046767;28;20272;-79
2021/08/27 05:48:50;;;;;;;12.43;3.23;;;11.90;99.90;;;;;;5064798;28;20279;-84
2021/08/27 05:51:19;;;;;;;9.50;3.47;;;12.10;99.90;;;;;;5066152;28;20220;-86
2021/08/27 05:53:50;;;;;;;6.80;3.33;;;12.10;99.90;;;;;;5069948;28;20208;-85
2021/08/27 05:56:22;;;;;;;8.47;3.20;;;12.20;99.90;;;;;;5065894;28;20228;-86
2021/08/27 05:58:53;;;;;;;5.60;3.07;;;12.30;99.90;;;;;;5067792;28;20315;-84
2021/08/27 06:01:21;;;;;;;9.53;3.07;;;12.40;99.90;;;;;;5070392;28;20258;-85
2021/08/27 06:03:49;;;;;;;5.80;2.73;;;12.50;99.90;;;;;;5068280;28;20230;-85
2021/08/27 06:06:18;;;;;;;8.23;2.70;;;12.60;99.90;;;;;;5075834;28;20207;-84
2021/08/27 06:08:47;;;;;;;8.63;3.00;;;12.70;99.90;;;;;;5070012;28;20246;-87
2021/08/27 06:11:23;;;;;;;7.97;3.17;;;12.70;99.90;;;;;;5080176;28;20230;-86
2021/08/27 06:13:52;;;;;;;7.63;2.63;;;12.80;99.90;;;;;;5076173;28;20278;-86
2021/08/27 06:16:27;;;;;;;6.57;2.57;;;12.90;99.90;;;;;;5072071;28;20268;-86
2021/08/27 06:18:58;;;;;;;5.83;2.50;;;13.00;99.90;;;;;;5069782;28;20253;-86
2021/08/27 06:21:37;;;;;;;7.17;3.33;;;13.10;99.90;;;;;;5075071;28;20224;-86
2021/08/27 06:24:23;;;;;;;8.57;3.00;;;13.20;99.90;;;;;;5064765;28;20226;-87
2021/08/27 06:27:07;;;;;;;10.20;5.87;;;13.30;99.90;;;;;;5072489;28;20654;-86
2021/08/27 06:29:40;;;;;;;4.90;3.43;;;13.40;99.90;;;;;;5111917;22;20331;-86
2021/08/27 06:32:21;;;;;;;10.10;3.37;;;13.50;99.90;;;;;;5081127;28;20286;-87
2021/08/27 06:34:59;;;;;;;7.37;2.77;;;13.60;99.90;;;;;;5075994;28;20207;-86
2021/08/27 06:40:31;;;;;;;8.77;3.97;;;13.80;99.90;;;;;;5040899;28;20300;-87
2021/08/27 06:43:15;;;;;;;9.60;2.40;;;13.90;99.90;;;;;;5069875;28;20281;-86
2021/08/27 06:48:57;;;;;;;7.33;2.30;;;14.10;99.90;;;;;;5071498;28;20208;-85
2021/08/27 06:51:45;;;;;;;6.97;2.70;;;14.20;99.90;;;;;;5066441;28;20189;-85
2021/08/27 06:54:20;;;;;;;5.97;2.53;;;14.30;99.90;;;;;;5075778;28;20196;-85
2021/08/27 06:57:10;;;;;;;7.20;2.23;;;14.40;99.90;;;;;;5070659;28;20197;-85
2021/08/27 07:00:27;;;;;;;;;;;;;;;;;;;;;
2021/08/27 07:03:13;;;;;;;10.63;2.97;;;14.60;99.90;;;;;;5069647;28;20225;-85
2021/08/27 07:05:47;;;;;;;8.80;2.20;;;14.70;99.90;;;;;;5075435;28;20192;-86
2021/08/27 07:11:53;;;;;;;5.00;2.40;;;15.10;99.90;;;;;;4997719;27;2945237;-83
2021/08/27 07:14:42;;;;;;;10.23;2.53;;;15.20;99.90;;;;;;5084009;28;20231;-82
2021/08/27 07:17:15;;;;;;;6.93;2.30;;;15.40;99.90;;;;;;5079760;28;20307;-82
2021/08/27 07:20:04;;;;;;;5.82;2.22;;;15.70;99.90;;;;;;5079663;28;20216;-83
2021/08/27 07:22:34;;;;;;;7.95;2.85;;;15.80;99.90;;;;;;5091572;28;20202;-82
2021/08/27 07:25:03;;;;;;;7.60;2.00;;;16.30;99.90;;;;;;5085506;28;20599;-83
2021/08/27 07:27:33;;;;;;;11.68;8.45;;;18.70;99.90;;;;;;5084369;28;20270;-82
2021/08/27 07:30:01;;;;;;;5.45;1.80;;;20.70;99.90;;;;;;5087359;28;20222;-82
2021/08/27 07:32:29;;;;;;;6.60;2.20;;;22.20;99.20;;;;;;5086282;28;20192;-83
2021/08/27 07:34:57;;;;;;;6.72;1.80;;;23.20;96.40;;;;;;5086423;28;20207;-83
2021/08/27 07:37:37;;;;;;;7.30;1.98;;;23.30;93.70;;;;;;5079032;28;20202;-82
2021/08/27 07:40:07;;;;;;;14.02;3.22;;;25.10;91.20;;;;;;5084865;28;20196;-82
2021/08/27 07:42:37;;;;;;;7.50;1.75;;;26.30;79.10;;;;;;5077214;28;20197;-82
2021/08/27 07:45:06;;;;;;;8.02;2.05;;;25.30;85.40;;;;;;5078964;28;20288;-82
2021/08/27 07:47:34;;;;;;;9.02;1.45;;;25.60;78.50;;;;;;5082002;28;20197;-82
2021/08/27 07:50:06;;;;;;;5.43;1.58;;;26.40;75.60;;;;;;5081382;28;20215;-82
2021/08/27 07:52:41;;;;;;;5.20;1.60;;;25.80;73.60;;;;;;5082573;28;20275;-83
2021/08/27 07:55:10;;;;;;;4.53;1.90;;;25.70;71.50;;;;;;5079215;28;20204;-83
2021/08/27 07:57:44;;;;;;;7.35;1.40;;;24.80;76.90;;;;;;5082945;28;20243;-82
2021/08/27 08:00:12;;;;;;;6.32;1.60;;;24.20;74.50;;;;;;5077296;28;20230;-82
2021/08/27 08:02:40;;;;;;;5.35;1.48;;;23.20;86.10;;;;;;5078891;28;20216;-79
2021/08/27 08:05:08;;;;;;;3.90;1.30;;;22.70;85.20;;;;;;5086098;28;20200;-77
2021/08/27 08:07:36;;;;;;;3.95;1.30;;;21.50;88.90;;;;;;5081958;28;20212;-78
2021/08/27 08:10:20;;;;;;;2.90;1.30;;;22.20;90.60;;;;;;5082782;28;20255;-79
2021/08/27 08:12:58;;;;;;;2.03;0.93;;;22.20;90.40;;;;;;5072765;28;20607;-82
2021/08/27 08:15:43;;;;;;;;;;;;;;;;;;;;;
2021/08/27 08:18:23;;;;;;;4.45;1.40;;;23.90;77.70;;;;;;5077261;28;20202;-82
2021/08/27 08:20:54;;;;;;;4.07;1.30;;;22.00;86.60;;;;;;5078731;28;20193;-83
2021/08/27 08:23:27;;;;;;;6.05;1.42;;;23.00;88.80;;;;;;5077372;28;20588;-82
2021/08/27 08:25:57;;;;;;;4.55;1.23;;;23.80;83.60;;;;;;5073406;28;20287;-82
2021/08/27 08:28:29;;;;;;;2.58;0.98;;;22.20;82.80;;;;;;5074447;28;20196;-82
2021/08/27 08:31:04;;;;;;;2.13;0.90;;;21.30;89.80;;;;;;5065169;28;20220;-85
2021/08/27 08:33:37;;;;;;;3.45;1.02;;;21.20;91.80;;;;;;5060626;28;20271;-83
2021/08/27 08:36:06;;;;;;;4.35;1.20;;;20.70;91.30;;;;;;5080612;28;20558;-83
2021/08/27 08:38:37;;;;;;;5.43;1.23;;;19.90;92.00;;;;;;5071946;28;20224;-83
2021/08/27 08:41:14;;;;;;;3.92;1.02;;;19.50;94.20;;;;;;5078237;28;20265;-83
2021/08/27 08:43:55;;;;;;;7.65;1.40;;;19.00;96.90;;;;;;5073643;28;20195;-83
2021/08/27 08:46:23;;;;;;;4.28;1.20;;;18.80;98.90;;;;;;5070180;28;20208;-81
2021/08/27 08:48:54;;;;;;;5.03;1.35;;;20.50;96.50;;;;;;5059846;28;20192;-81
2021/08/27 08:51:26;;;;;;;6.38;1.63;;;19.70;96.70;;;;;;5074298;28;20219;-80
2021/08/27 08:54:01;;;;;;;4.13;1.08;;;18.90;99.90;;;;;;5069894;28;20199;-82
2021/08/27 08:56:30;;;;;;;5.53;1.38;;;21.30;97.40;;;;;;5074457;28;20691;-83
2021/08/27 08:59:02;;;;;;;3.80;1.63;;;23.50;91.80;;;;;;5063966;22;20582;-82
2021/08/27 09:01:40;;;;;;;3.22;1.20;;;23.60;88.20;;;;;;5044625;28;20339;-81
2021/08/27 09:04:11;;;;;;;4.55;1.23;;;21.90;89.80;;;;;;5045184;28;20718;-82
2021/08/27 09:06:42;;;;;;;8.18;1.20;;;20.00;93.30;;;;;;5050253;28;20200;-82
2021/08/27 09:09:10;;;;;;;4.15;1.60;;;18.90;98.40;;;;;;5042292;28;20651;-83
2021/08/27 09:11:38;;;;;;;5.80;1.50;;;18.30;99.90;;;;;;5052448;28;20221;-83
2021/08/27 09:14:08;;;;;;;9.05;2.30;;;18.70;99.90;;;;;;5045034;28;20639;-84
2021/08/27 09:16:37;;;;;;;6.40;2.20;;;19.00;99.90;;;;;;5049960;28;20193;-82
2021/08/27 09:19:05;;;;;;;7.90;2.00;;;19.10;99.90;;;;;;5048160;28;20201;-86
2021/08/27 09:21:44;;;;;;;4.38;2.08;;;19.00;99.90;;;;;;5045116;28;20557;-80
2021/08/27 09:24:13;;;;;;;6.68;1.80;;;18.80;99.90;;;;;;5043889;28;20278;-82
2021/08/27 09:26:43;;;;;;;4.57;1.65;;;18.90;99.90;;;;;;5045930;28;20303;-82
2021/08/27 09:29:12;;;;;;;7.53;1.55;;;18.90;99.90;;;;;;5045070;28;20229;-82
2021/08/27 09:31:42;;;;;;;5.38;1.50;;;18.90;99.90;;;;;;5042756;28;20295;-81
2021/08/27 09:34:10;;;;;;;5.00;1.40;;;20.80;99.90;;;;;;5043747;28;20666;-81
2021/08/27 09:36:38;;;;;;;4.82;1.75;;;22.80;95.20;;;;;;5048134;28;20661;-84
2021/08/27 09:39:11;;;;;;;4.35;1.33;;;23.90;92.20;;;;;;5041082;28;20197;-81
2021/08/27 09:41:56;;;;;;;4.72;1.25;;;24.30;85.40;;;;;;5050373;28;20205;-82
2021/08/27 09:44:27;;;;;;;1.75;0.90;;;23.90;86.40;;;;;;5042612;28;20193;-82
2021/08/27 09:47:00;;;;;;;9.10;4.63;;;21.90;89.60;;;;;;5043212;28;20193;-81
2021/08/27 09:49:28;;;;;;;4.63;1.48;;;20.60;93.80;;;;;;5040324;28;20204;-80
2021/08/27 09:51:57;;;;;;;5.78;1.45;;;19.20;99.90;;;;;;5045728;28;20524;-81
2021/08/27 09:54:54;;;;;;;3.60;1.10;;;19.30;99.30;;;;;;5038869;28;20284;-80
2021/08/27 09:57:32;;;;;;;3.35;1.02;;;19.30;99.90;;;;;;5037834;28;20212;-80
2021/08/27 10:00:18;;;;;;;8.80;1.50;;;19.50;99.90;;;;;;5040218;28;20655;-80
2021/08/27 10:02:50;;;;;;;4.63;1.23;;;19.50;99.60;;;;;;5041230;28;20199;-80
2021/08/27 10:05:40;;;;;;;4.45;1.00;;;19.40;99.10;;;;;;5032504;28;20189;-80
2021/08/27 10:08:16;;;;;;;5.43;1.52;;;18.90;98.60;;;;;;5040272;28;20235;-80
2021/08/27 10:10:45;;;;;;;2.10;0.90;;;19.20;98.20;;;;;;5038713;28;20230;-79
2021/08/27 10:13:17;;;;;;;4.72;1.10;;;19.20;97.90;;;;;;5043919;28;20296;-80
2021/08/27 10:15:50;;;;;;;6.57;1.00;;;19.40;97.60;;;;;;5037760;28;20216;-80
2021/08/27 10:18:27;;;;;;;6.72;1.40;;;19.80;97.40;;;;;;5040435;28;20284;-82
2021/08/27 10:21:04;;;;;;;3.42;1.17;;;20.00;97.20;;;;;;5040864;28;20284;-80
2021/08/27 10:23:45;;;;;;;3.78;0.90;;;20.70;96.30;;;;;;5040081;28;20282;-80
2021/08/27 10:32:08;;;;;;;3.08;1.30;;;19.60;93.00;;;;;;4995358;28;20226;-83
2021/08/27 10:34:45;;;;;;;3.25;0.80;;;19.30;93.50;;;;;;4986358;28;20293;-82
2021/08/27 10:37:48;;;;;;;4.88;1.42;;;19.30;93.70;;;;;;4989968;28;20225;-82
2021/08/27 10:40:41;;;;;;;2.17;1.02;;;19.00;95.70;;;;;;4986406;28;21380;-82
2021/08/27 10:43:16;;;;;;;3.92;1.13;;;18.80;98.20;;;;;;4995053;28;20205;-83
2021/08/27 10:45:57;;;;;;;6.07;1.45;;;18.90;99.10;;;;;;4993585;28;20205;-82
2021/08/27 10:48:28;;;;;;;4.45;1.08;;;19.00;99.60;;;;;;4996856;28;20197;-83
2021/08/27 10:51:04;;;;;;;2.17;1.10;;;19.30;99.50;;;;;;4991620;28;20222;-82
2021/08/27 10:53:37;;;;;;;4.95;1.40;;;19.60;98.90;;;;;;5002736;28;20279;-82
2021/08/27 10:56:07;;;;;;;3.22;1.25;;;19.80;98.70;;;;;;5010875;28;20206;-82
2021/08/27 10:58:45;;;;;;;5.22;0.90;;;19.90;98.00;;;;;;5013845;28;20209;-82
2021/08/27 11:01:34;;;;;;;3.15;1.20;;;19.80;97.40;;;;;;5011720;28;20206;-82
2021/08/27 11:04:24;;;;;;;2.83;1.08;;;19.40;96.70;;;;;;5010607;28;20595;-82
2021/08/27 11:06:53;;;;;;;3.28;1.13;;;19.00;98.20;;;;;;5016036;28;20399;-84
2021/08/27 11:09:25;;;;;;;3.22;1.23;;;18.50;99.90;;;;;;5009849;28;20656;-82
2021/08/27 11:12:21;;;;;;;4.07;1.45;;;18.10;99.90;;;;;;5011069;28;20222;-83
2021/08/27 11:14:57;;;;;;;4.63;1.10;;;18.20;99.90;;;;;;5005924;28;20198;-84
2021/08/27 11:17:24;;;;;;;16.13;6.80;;;18.00;99.90;;;;;;5011287;28;20236;-82
2021/08/27 11:20:01;;;;;;;3.53;1.20;;;17.90;99.90;;;;;;5009775;28;20570;-83
2021/08/27 11:22:30;;;;;;;4.63;1.08;;;18.00;99.90;;;;;;5011468;28;20478;-83
2021/08/27 11:25:23;;;;;;;5.05;1.27;;;18.00;99.90;;;;;;5011019;28;20668;-81
2021/08/27 11:28:12;;;;;;;5.45;1.23;;;18.20;99.90;;;;;;5004783;28;20649;-82
2021/08/27 11:30:42;;;;;;;6.00;1.60;;;18.30;99.90;;;;;;5015154;28;20786;-81
2021/08/27 11:33:48;;;;;;;4.28;1.45;;;18.50;99.90;;;;;;5011488;28;20671;-83
2021/08/27 11:39:01;;;;;;;5.05;1.23;;;18.80;99.90;;;;;;5014550;28;20197;-80
2021/08/27 11:41:29;;;;;;;5.25;1.50;;;19.00;99.90;;;;;;5003634;28;20206;-79
2021/08/27 11:44:11;;;;;;;3.20;1.30;;;19.10;99.50;;;;;;5007506;28;20365;-83
2021/08/27 11:46:40;;;;;;;7.40;1.88;;;19.20;98.90;;;;;;5008038;28;20219;-84
2021/08/27 11:49:28;;;;;;;3.90;1.60;;;19.30;98.70;;;;;;5012549;28;20590;-81
2021/08/27 11:52:27;;;;;;;1.98;1.38;;;19.60;98.80;;;;;;5012071;28;20340;-84
2021/08/27 11:55:50;;;;;;;4.45;1.58;;;19.80;98.00;;;;;;5009200;28;20639;-81
2021/08/27 12:03:50;;;;;;;10.00;2.30;;;20.30;97.60;;;;;;5017659;28;20305;-84
2021/08/27 12:06:24;;;;;;;17.58;3.95;;;20.70;97.40;;;;;;5020014;28;20229;-82
2021/08/27 12:08:57;;;;;;;12.13;3.17;;;20.70;97.00;;;;;;5019817;28;20218;-84
2021/08/27 12:11:34;;;;;;;5.85;1.73;;;20.30;96.90;;;;;;5017122;28;20226;-84
2021/08/27 12:14:03;;;;;;;8.98;2.58;;;20.00;97.30;;;;;;5022973;28;20265;-85
2021/08/27 12:16:31;;;;;;;6.00;1.92;;;19.80;96.40;;;;;;5020693;28;20191;-85
2021/08/27 12:19:00;;;;;;;4.63;2.33;;;19.80;96.90;;;;;;5020752;28;20240;-84
2021/08/27 12:21:29;;;;;;;5.65;1.95;;;19.50;97.40;;;;;;5018148;28;20222;-85
2021/08/27 12:24:07;;;;;;;3.40;1.60;;;19.10;97.90;;;;;;5020456;28;20210;-85
2021/08/27 12:26:39;;;;;;;7.57;2.40;;;19.30;98.70;;;;;;5019923;28;20244;-85
2021/08/27 12:29:22;;;;;;;5.13;2.10;;;19.60;98.00;;;;;;5020000;28;20206;-85
2021/08/27 12:31:52;;;;;;;6.45;1.95;;;19.60;97.50;;;;;;5021945;28;20224;-85
2021/08/27 12:34:22;;;;;;;6.65;2.00;;;19.80;97.60;;;;;;5024322;28;20218;-85
2021/08/27 12:36:51;;;;;;;5.38;2.28;;;19.90;97.30;;;;;;5022151;28;20305;-84
2021/08/27 12:39:37;;;;;;;5.38;2.00;;;19.90;96.20;;;;;;5022414;28;20245;-84
2021/08/27 12:42:17;;;;;;;6.93;2.17;;;19.80;96.90;;;;;;5021091;28;20274;-84
2021/08/27 12:45:04;;;;;;;4.10;1.80;;;19.70;97.20;;;;;;5020629;28;20198;-84
2021/08/27 12:47:44;;;;;;;5.30;2.03;;;20.00;96.90;;;;;;5019145;28;20222;-83
2021/08/27 12:50:16;;;;;;;3.58;1.80;;;20.10;96.50;;;;;;5017655;28;20198;-84
2021/08/27 12:53:01;;;;;;;5.63;2.00;;;19.60;97.10;;;;;;5017942;28;20230;-84
2021/08/27 12:55:35;;;;;;;7.28;2.83;;;19.80;97.70;;;;;;5015514;28;20198;-84
2021/08/27 12:58:03;;;;;;;7.30;3.70;;;20.10;96.90;;;;;;5016440;28;20201;-83
2021/08/27 13:00:32;;;;;;;4.50;2.05;;;20.30;95.70;;;;;;5013214;28;20238;-83
2021/08/27 13:03:19;;;;;;;19.42;9.02;;;20.10;95.70;;;;;;5015425;28;20229;-85
2021/08/27 13:05:50;;;;;;;21.52;7.25;;;20.30;95.90;;;;;;5016475;28;20233;-84
2021/08/27 13:11:14;;;;;;;4.70;1.73;;;21.00;94.70;;;;;;5027064;28;20222;-86
2021/08/27 13:13:46;;;;;;;27.30;11.63;;;21.10;94.50;;;;;;5027595;28;20309;-86
2021/08/27 13:16:20;;;;;;;7.18;2.40;;;20.80;94.20;;;;;;5015703;28;20208;-82
2021/08/27 13:18:59;;;;;;;5.15;2.03;;;20.90;93.40;;;;;;5031885;28;20190;-91
2021/08/27 13:21:36;;;;;;;2.83;1.55;;;20.60;93.80;;;;;;5033029;28;20206;-87
2021/08/27 13:24:13;;;;;;;4.32;1.73;;;20.30;94.40;;;;;;5029039;28;20217;-86
2021/08/27 13:26:42;;;;;;;4.47;1.73;;;19.80;95.30;;;;;;5016392;28;20699;-82
2021/08/27 13:29:11;;;;;;;4.53;1.75;;;19.90;94.80;;;;;;5021147;28;20194;-88
2021/08/27 13:34:26;;;;;;;5.72;1.30;;;19.70;95.00;;;;;;5020368;28;20232;-88
2021/08/27 13:36:54;;;;;;;8.32;2.05;;;19.40;95.20;;;;;;5017577;28;20248;-87
2021/08/27 13:39:26;;;;;;;5.55;1.73;;;19.40;95.70;;;;;;5014339;28;20260;-85
2021/08/27 13:44:41;;;;;;;22.63;14.38;;;20.20;94.30;;;;;;5007464;28;20206;-85
2021/08/27 13:47:14;;;;;;;763.70;376.05;;;20.00;93.00;;;;;;5010855;28;20198;-85
2021/08/27 13:49:53;;;;;;;4.18;1.40;;;19.90;93.90;;;;;;5017629;28;20202;-86
2021/08/27 13:55:17;;;;;;;5.60;1.80;;;20.30;93.40;;;;;;5017843;28;20198;-87
2021/08/27 13:57:48;;;;;;;3.78;1.40;;;20.50;93.40;;;;;;5011538;28;20200;-86
2021/08/27 14:00:18;;;;;;;5.22;1.35;;;20.70;92.40;;;;;;5010032;28;20206;-81
2021/08/27 14:02:50;;;;;;;5.50;1.33;;;20.80;92.50;;;;;;5012391;28;21606;-85
2021/08/27 14:05:18;;;;;;;210.90;112.38;;;20.70;92.30;;;;;;5013845;28;20976;-85
2021/08/27 14:07:49;;;;;;;217.35;122.32;;;20.30;92.90;;;;;;5011392;28;20289;-85
2021/08/27 14:10:23;;;;;;;6.60;1.40;;;20.30;93.60;;;;;;5005344;28;20558;-82
2021/08/27 14:12:53;;;;;;;5.18;1.65;;;20.40;93.90;;;;;;5012588;28;20336;-84
2021/08/27 14:15:22;;;;;;;6.50;1.73;;;20.40;93.60;;;;;;5010420;28;20190;-85
2021/08/27 14:17:58;;;;;;;2.83;0.98;;;20.00;93.60;;;;;;5015790;28;20218;-85
2021/08/27 14:20:45;;;;;;;6.18;1.30;;;20.20;93.50;;;;;;5020855;28;20204;-86
2021/08/27 14:23:27;;;;;;;2.97;1.00;;;20.40;93.40;;;;;;5025233;28;20202;-84
2021/08/27 14:25:59;;;;;;;4.53;1.08;;;20.50;93.20;;;;;;5023901;28;20264;-86
2021/08/27 14:28:29;;;;;;;5.85;1.45;;;20.90;92.90;;;;;;5027814;28;20221;-86